Latest Weather Observations for Maroochydore

IDQ60801

Issued at 11:32 am EST Sunday 7 February 2016 (issued every 30 minutes, with the page automatically refreshed every 10 minutes)

About weather observations | Map of weather stations | Latest weather observations for QLD | Other Formats
Station Details ID: 040861 Name: SUNSHINE COAST AIRPORT Lat: -26.60 Lon: 153.09 Height: 3.3 m
Data from the previous 72 hours. | See also: Recent months at Maroochydore
Date/Time
EST
Temp
°C
App
Temp
°C
Dew
Point
Rel
Hum
%
Delta-T
°C
Wind Press
QNH
hPa
Press
MSL
hPa
Rain
since 9 am
mm
Dir
 
Spd
km/h
Gust
km/h
Spd
kts
Gust
kts
07/11:00am 25.6 24.5 22.5 83 2.1 S 32 41 17 22 1012.4 - 1.0
07/10:30am 24.3 24.3 21.6 85 1.8 S 24 39 13 21 1012.5 - 1.0
07/10:28am 24.4 24.7 22.3 88 1.4 S 24 39 13 21 1012.5 - 1.0
07/10:12am 23.7 23.5 22.0 90 1.1 SSE 26 35 14 19 1012.7 - 1.0
07/10:00am 24.5 24.0 22.9 91 1.1 SSE 30 50 16 27 1012.6 - 0.8
07/09:56am 24.2 23.0 22.3 89 1.3 SSE 32 50 17 27 1012.6 - 0.8
07/09:54am 24.1 22.6 21.8 87 1.5 SSE 32 41 17 22 1012.6 - 0.8
07/09:30am 23.3 22.5 21.6 90 1.1 SSE 28 37 15 20 1012.6 - 0.4
07/09:27am 23.4 22.5 21.5 89 1.3 SSE 28 37 15 20 1012.6 - 0.2
07/09:00am 24.4 24.1 21.9 86 1.7 SSE 26 39 14 21 1012.5 1012.5 4.0
07/08:44am 23.9 24.4 22.0 89 1.3 S 22 32 12 17 1012.5 - 4.0
07/08:30am 23.2 24.8 22.2 94 0.7 S 17 20 9 11 1012.5 - 4.0
07/08:24am 22.9 24.7 21.9 94 0.7 S 15 17 8 9 1012.5 - 4.0
07/08:10am 22.8 25.1 22.0 95 0.5 S 13 17 7 9 1012.6 - 4.0
07/08:00am 22.5 23.7 21.5 94 0.7 S 17 22 9 12 1012.4 - 3.8
07/07:40am 22.2 22.9 21.2 94 0.7 S 19 28 10 15 1012.4 - 3.8
07/07:30am 22.3 22.8 21.1 93 0.8 S 20 28 11 15 1012.2 - 3.6
07/07:13am 22.1 22.6 21.1 94 0.7 S 20 28 11 15 1012.1 - 3.6
07/07:09am 22.1 22.7 21.3 95 0.5 S 20 28 11 15 1012.1 - 3.6
07/07:00am 22.1 22.7 21.3 95 0.5 S 20 28 11 15 1012.1 - 3.6
07/06:30am 22.3 22.9 21.3 94 0.7 S 20 30 11 16 1011.9 - 2.0
07/06:23am 22.4 23.1 21.2 93 0.8 S 19 26 10 14 1011.9 - 1.8
07/06:17am 22.6 23.3 21.2 92 0.9 S 19 24 10 13 1011.8 - 1.4
07/06:00am 22.7 23.8 21.2 91 1.0 SSW 17 24 9 13 1011.6 1011.6 1.2
07/05:30am 22.7 23.2 21.2 91 1.0 S 20 28 11 15 1011.2 - 1.2
07/05:00am 22.7 23.8 21.2 91 1.0 SSW 17 26 9 14 1010.7 - 1.2
07/04:30am 22.6 23.6 21.1 91 1.0 SSW 17 20 9 11 1010.3 - 1.2
07/04:00am 22.7 24.4 21.0 90 1.1 S 13 19 7 10 1010.2 - 1.2
07/03:30am 23.0 24.3 20.9 88 1.4 SSW 15 20 8 11 1010.2 - 1.0
07/03:00am 23.4 24.7 20.1 82 2.1 SSW 13 19 7 10 1010.2 1010.2 1.0
07/02:30am 24.8 24.4 20.1 75 3.0 SSE 22 30 12 16 1010.1 - 1.0
07/02:00am 24.7 24.9 20.2 76 2.9 SSE 19 26 10 14 1010.1 - 1.0
07/01:30am 24.7 24.3 20.2 76 2.9 SE 22 30 12 16 1010.3 - 1.0
07/01:00am 24.7 24.0 20.2 76 2.9 SSE 24 33 13 18 1010.4 - 1.0
07/12:30am 24.5 24.2 20.4 78 2.7 SE 22 33 12 18 1010.7 - 1.0
07/12:00am 24.5 24.2 20.4 78 2.7 SSE 22 33 12 18 1011.1 1011.1 1.0
 
Date/Time
EST
Temp
°C
App
Temp
°C
Dew
Point
Rel
Hum
%
Delta-T
°C
Wind Press
QNH
hPa
Press
MSL
hPa
Rain
since 9 am
mm
Dir
 
Spd
km/h
Gust
km/h
Spd
kts
Gust
kts
06/11:30pm 24.4 23.0 20.5 79 2.5 SE 28 43 15 23 1011.3 - 1.0
06/11:03pm 23.9 24.0 21.2 85 1.8 SSE 22 33 12 18 1011.6 - 1.0
06/11:00pm 23.8 23.6 21.3 86 1.6 SSE 24 33 13 18 1011.6 - 1.0
06/10:52pm 23.5 22.5 21.2 87 1.5 SSE 28 33 15 18 1011.7 - 1.0
06/10:30pm 24.5 24.3 21.2 82 2.2 ESE 24 35 13 19 1011.9 - 0.4
06/10:00pm 24.9 24.3 21.2 80 2.4 SE 26 35 14 19 1012.2 - 0.4
06/09:30pm 24.1 23.6 20.8 82 2.2 SSE 24 32 13 17 1012.1 - 0.4
06/09:00pm 25.0 24.2 20.9 78 2.7 SE 26 33 14 18 1011.7 1011.7 0.4
06/08:30pm 24.7 24.5 21.2 81 2.3 SE 24 33 13 18 1011.5 - 0.4
06/08:00pm 25.0 23.7 21.3 80 2.4 SE 30 39 16 21 1011.1 - 0.4
06/07:30pm 24.6 24.3 21.9 85 1.8 SE 26 33 14 18 1010.7 - 0.4
06/07:00pm 24.0 23.2 21.7 87 1.5 SE 28 43 15 23 1010.3 - 0.4
06/06:30pm 25.5 25.1 21.0 76 3.0 SE 24 33 13 18 1009.9 - 0.0
06/06:00pm 25.8 25.3 20.8 74 3.3 SE 24 33 13 18 1009.5 1009.5 0.0
06/05:30pm 25.8 25.0 20.8 74 3.3 SE 26 35 14 19 1009.1 - 0.0
06/05:00pm 26.1 24.9 20.9 73 3.4 SE 28 37 15 20 1008.8 - 0.0
06/04:30pm 26.4 26.0 20.9 72 3.6 SE 24 32 13 17 1008.6 - 0.0
06/04:00pm 27.4 26.0 20.5 66 4.5 ESE 28 39 15 21 1008.6 - 0.0
06/03:30pm 26.8 25.7 21.1 71 3.8 SE 28 35 15 19 1008.6 - 0.0
06/03:00pm 27.1 26.3 20.9 69 4.1 SE 26 37 14 20 1008.7 1008.7 0.0
06/02:30pm 27.2 26.2 21.2 69 4.0 SE 28 39 15 21 1008.9 - 0.0
06/02:00pm 27.3 26.7 21.3 69 4.0 ESE 26 33 14 18 1009.0 - 0.0
06/01:30pm 28.3 27.6 21.8 68 4.4 SE 28 37 15 20 1009.2 - 0.0
06/01:00pm 28.8 28.3 22.1 67 4.5 SE 28 39 15 21 1009.3 - 0.0
06/12:30pm 28.5 27.4 21.8 67 4.5 SE 30 39 16 21 1009.5 - 0.0
06/12:00pm 29.8 29.8 23.7 70 4.2 SE 30 35 16 19 1009.7 1009.7 0.0
06/11:30am 27.8 27.2 21.3 67 4.3 SE 26 39 14 21 1009.9 - 0.0
06/11:00am 27.3 25.7 20.1 64 4.7 ESE 28 43 15 23 1010.2 - 0.0
06/10:30am 27.2 26.8 22.4 75 3.2 SE 28 39 15 21 1010.2 - 0.0
06/10:00am 26.0 25.8 22.1 79 2.6 SE 26 35 14 19 1010.4 - 0.0
06/09:47am 24.8 23.4 20.5 77 2.8 SE 28 46 15 25 1010.5 - 0.0
06/09:30am 28.0 27.8 22.0 70 4.0 ESE 26 32 14 17 1010.3 - 0.0
06/09:00am 27.2 26.7 22.2 74 3.4 SE 28 39 15 21 1010.2 1010.2 9.4
06/08:32am 25.1 24.6 22.2 84 1.9 SE 28 37 15 20 1010.1 - 9.4
06/08:30am 24.8 24.3 22.1 85 1.8 SE 28 37 15 20 1010.2 - 9.4
06/08:18am 23.7 22.5 21.6 88 1.4 SE 30 41 16 22 1010.1 - 9.4
06/08:00am 25.8 25.0 21.7 78 2.7 SE 28 39 15 21 1009.8 - 9.2
06/07:30am 24.9 25.8 22.6 87 1.5 SE 22 32 12 17 1009.7 - 9.2
06/07:00am 24.5 25.5 22.2 87 1.5 SSE 20 33 11 18 1009.5 - 9.2
06/06:30am 24.4 24.2 22.1 87 1.5 SE 26 35 14 19 1009.1 - 9.2
06/06:00am 23.6 24.6 22.2 92 0.9 SSE 20 28 11 15 1008.6 1008.6 9.2
06/05:55am 23.2 24.0 21.8 92 0.9 SSE 20 30 11 16 1008.6 - 9.2
06/05:44am 23.5 23.9 22.5 94 0.7 SSE 24 39 13 21 1008.5 - 9.2
06/05:30am 23.2 23.7 22.0 93 0.8 SE 22 33 12 18 1008.4 - 9.2
06/05:00am 23.0 24.1 22.3 96 0.5 SSE 20 28 11 15 1007.8 - 9.2
06/04:52am 22.8 23.4 22.1 96 0.5 SSE 22 32 12 17 1007.8 - 9.2
06/04:30am 22.7 23.8 22.0 96 0.5 S 19 30 10 16 1007.8 - 7.4
06/04:27am 22.8 23.8 22.1 96 0.5 S 20 30 11 16 1007.6 - 7.4
06/04:16am 22.9 23.9 22.1 95 0.5 S 20 28 11 15 1007.6 - 6.6
06/04:03am 23.0 23.7 22.3 96 0.5 SSE 22 32 12 17 1007.6 - 6.6
06/04:00am 23.0 23.7 22.3 96 0.5 SSE 22 32 12 17 1007.6 - 6.6
06/03:30am 23.1 23.8 22.3 95 0.5 SSE 22 30 12 16 1007.5 - 5.0
06/03:23am 23.1 23.8 22.3 95 0.5 SSE 22 32 12 17 1007.4 - 4.6
06/03:17am 23.0 23.3 22.2 95 0.5 SSE 24 32 13 17 1007.5 - 4.4
06/03:00am 22.8 23.0 22.0 95 0.5 SSE 24 39 13 21 1007.4 1007.4 4.2
06/02:37am 22.8 23.0 22.0 95 0.5 S 24 35 13 19 1007.4 - 3.4
06/02:30am 22.9 23.0 21.9 94 0.7 S 24 30 13 16 1007.5 - 2.8
06/02:15am 23.0 22.9 22.2 95 0.5 S 26 33 14 18 1007.6 - 2.8
06/02:10am 23.2 23.2 22.4 95 0.5 SSE 26 35 14 19 1007.6 - 2.8
06/02:08am 23.1 23.0 22.3 95 0.5 SSE 26 35 14 19 1007.6 - 2.8
06/02:00am 22.9 22.8 22.2 96 0.5 SSE 26 37 14 20 1007.7 - 2.8
06/01:52am 22.8 23.4 22.1 96 0.5 SSE 22 35 12 19 1007.9 - 2.6
06/01:47am 22.9 23.1 22.1 95 0.5 SSE 24 37 13 20 1007.9 - 1.8
06/01:30am 22.9 22.3 21.9 94 0.7 SSE 28 41 15 22 1007.9 - 1.4
06/01:10am 22.7 22.3 21.7 94 0.7 SSE 26 33 14 18 1008.2 - 1.4
06/01:00am 22.7 21.1 21.9 95 0.5 SSE 33 46 18 25 1008.3 - 1.4
06/12:51am 22.5 20.5 21.1 92 0.9 SSE 33 57 18 31 1008.4 - 1.4
06/12:48am 23.4 22.7 21.8 91 1.1 SSE 28 50 15 27 1008.3 - 1.0
06/12:30am 22.7 21.1 21.5 93 0.8 SSE 32 43 17 23 1008.5 - 1.0
06/12:28am 22.7 21.1 21.5 93 0.8 SSE 32 43 17 23 1008.5 - 1.0
06/12:09am 22.9 21.3 21.5 92 0.9 SSE 32 52 17 28 1008.8 - 1.0
06/12:05am 23.6 22.4 21.5 88 1.4 SSE 30 48 16 26 1008.9 - 0.8
06/12:00am 24.3 23.2 21.8 86 1.7 SSE 30 43 16 23 1008.7 1008.7 0.8
 
Date/Time
EST
Temp
°C
App
Temp
°C
Dew
Point
Rel
Hum
%
Delta-T
°C
Wind Press
QNH
hPa
Press
MSL
hPa
Rain
since 9 am
mm
Dir
 
Spd
km/h
Gust
km/h
Spd
kts
Gust
kts
05/11:30pm 24.4 22.6 21.5 84 1.9 SSE 33 46 18 25 1009.2 - 0.8
05/11:17pm 24.4 23.2 21.5 84 1.9 SSE 30 48 16 26 1009.3 - 0.8
05/11:00pm 24.5 23.3 21.6 84 1.9 SSE 30 44 16 24 1009.6 - 0.8
05/10:36pm 24.8 23.7 21.7 83 2.1 SSE 30 48 16 26 1009.5 - 0.8
05/10:30pm 24.7 24.1 22.0 85 1.8 SSE 28 39 15 21 1009.5 - 0.8
05/10:11pm 24.4 23.9 22.1 87 1.5 SSE 28 46 15 25 1009.5 - 0.8
05/10:00pm 24.0 24.8 22.4 91 1.1 SE 22 30 12 16 1009.5 - 0.8
05/09:38pm 23.9 23.2 21.8 88 1.4 SSE 28 46 15 25 1009.7 - 0.6
05/09:30pm 24.1 24.6 22.0 88 1.4 SSE 22 32 12 17 1009.7 - 0.4
05/09:00pm 23.5 23.6 21.9 91 1.1 SSE 24 35 13 19 1009.7 1009.7 0.4
05/08:51pm 23.2 21.6 21.5 90 1.1 SSE 32 41 17 22 1009.7 - 0.4
05/08:33pm 23.4 21.9 21.8 91 1.1 SE 32 50 17 27 1009.7 - 0.4
05/08:30pm 24.3 23.3 22.0 87 1.5 SSE 30 50 16 27 1009.6 - 0.2
05/08:00pm 25.1 22.8 21.2 79 2.6 SSE 35 50 19 27 1009.2 - 0.2
05/07:30pm 25.0 23.4 21.5 81 2.3 SSE 32 48 17 26 1008.8 - 0.2
05/07:00pm 24.9 23.2 21.4 81 2.3 SSE 32 43 17 23 1008.2 - 0.2
05/06:30pm 24.5 22.9 21.6 84 1.9 SSE 32 43 17 23 1008.2 - 0.2
05/06:11pm 24.8 23.5 21.3 81 2.3 SSE 30 50 16 27 1008.0 - 0.2
05/06:07pm 24.7 23.8 21.4 82 2.2 S 28 50 15 27 1007.9 - 0.2
05/06:00pm 24.7 23.8 21.4 82 2.2 S 28 37 15 20 1008.0 1008.0 0.2
05/05:59pm 24.7 24.3 21.6 83 2.1 S 26 37 14 20 1008.0 - 0.2
05/05:30pm 24.4 23.5 22.1 87 1.5 SSE 30 41 16 22 1007.7 - 0.2
05/05:27pm 24.5 23.3 22.2 87 1.5 SSE 32 43 17 23 1007.7 - 0.2
05/05:00pm 24.8 23.9 22.1 85 1.8 SSE 30 44 16 24 1007.4 - 0.2
05/04:30pm 24.5 23.8 21.8 85 1.8 SSE 28 44 15 24 1007.4 - 0.2
05/04:00pm 24.5 23.1 22.0 86 1.7 S 32 43 17 23 1007.2 - 0.2
05/03:30pm 25.6 23.6 20.8 75 3.2 SSE 32 44 17 24 1007.1 - 0.2
05/03:00pm 25.7 24.0 21.4 77 2.9 SSE 32 46 17 25 1007.1 1007.1 0.2
05/02:30pm 26.6 24.5 20.9 71 3.8 SSE 33 50 18 27 1007.3 - 0.2
05/02:00pm 27.7 25.4 21.3 68 4.3 SSE 35 46 19 25 1007.5 - 0.2
05/01:38pm 27.4 25.1 20.5 66 4.5 SSE 33 52 18 28 1007.5 - 0.2
05/01:30pm 27.3 25.4 21.3 69 4.0 SSE 33 48 18 26 1007.6 - 0.2
05/01:00pm 27.0 24.7 20.6 68 4.2 SSE 33 50 18 27 1007.9 - 0.2
05/12:33pm 27.3 25.3 21.1 69 4.1 SSE 33 52 18 28 1007.9 - 0.2
05/12:30pm 27.4 25.0 21.0 68 4.2 SSE 35 52 19 28 1007.9 - 0.2
05/12:00pm 26.6 24.8 21.1 72 3.6 SSE 32 48 17 26 1008.2 1008.2 0.2
05/11:53am 26.5 25.2 21.3 73 3.4 SSE 30 48 16 26 1008.2 - 0.2
05/11:30am 26.5 25.4 21.0 72 3.6 SSE 28 39 15 21 1008.4 - 0.2
05/11:00am 26.3 25.1 20.8 71 3.6 SSE 28 43 15 23 1008.5 - 0.0
05/10:30am 26.3 24.6 21.3 74 3.3 SSE 32 43 17 23 1008.7 - 0.0
05/10:00am 26.2 24.6 20.7 71 3.6 SSE 30 43 16 23 1008.6 - 0.0
05/09:30am 25.5 24.1 20.5 74 3.3 SSE 28 39 15 21 1008.6 - 0.0
05/09:00am 25.2 24.9 21.1 78 2.7 SSE 24 35 13 19 1008.5 1008.5 10.2
05/08:30am 24.6 25.5 21.5 83 2.1 S 19 30 10 16 1008.3 - 10.2
05/08:00am 24.2 25.3 21.3 84 1.9 S 17 26 9 14 1008.1 - 10.2
05/07:30am 24.0 25.1 21.3 85 1.8 S 17 24 9 13 1007.6 - 10.2
05/07:00am 23.4 24.2 21.3 88 1.4 S 19 24 10 13 1007.3 - 10.2
05/06:30am 22.7 24.2 21.3 92 0.9 SSW 15 19 8 10 1007.1 - 10.2
05/06:00am 22.3 22.9 21.1 93 0.8 S 19 26 10 14 1006.6 1006.6 10.2
05/05:30am 22.8 24.0 20.7 88 1.4 S 15 20 8 11 1006.2 - 10.2
05/05:00am 22.8 23.1 20.7 88 1.4 S 20 28 11 15 1005.7 - 10.2
05/04:30am 22.7 23.0 20.8 89 1.2 S 20 26 11 14 1005.3 - 10.2
05/04:00am 22.5 23.4 20.8 90 1.1 S 17 24 9 13 1005.5 - 10.2
05/03:30am 22.8 23.1 20.7 88 1.4 S 20 28 11 15 1005.4 - 10.2
05/03:00am 22.9 23.2 20.8 88 1.4 S 20 28 11 15 1005.4 1005.4 10.2
05/02:30am 22.8 23.2 20.9 89 1.2 S 20 28 11 15 1005.4 - 10.2
05/02:00am 22.7 23.2 20.8 89 1.2 S 19 24 10 13 1005.6 - 10.2
05/01:30am 22.7 23.6 20.8 89 1.2 S 17 24 9 13 1005.9 - 10.2
05/01:00am 22.5 23.3 20.6 89 1.2 S 17 24 9 13 1006.2 - 10.2
05/12:30am 22.5 23.4 20.8 90 1.1 SSW 17 24 9 13 1006.8 - 10.2
05/12:00am 22.4 24.0 20.7 90 1.1 SSW 13 19 7 10 1007.3 1007.3 10.2
 
Date/Time
EST
Temp
°C
App
Temp
°C
Dew
Point
Rel
Hum
%
Delta-T
°C
Wind Press
QNH
hPa
Press
MSL
hPa
Rain
since 9 am
mm
Dir
 
Spd
km/h
Gust
km/h
Spd
kts
Gust
kts
04/11:30pm 22.4 24.8 20.9 91 1.0 SSW 9 13 5 7 1007.5 - 10.2
04/11:00pm 22.4 24.3 20.5 89 1.2 SSW 11 15 6 8 1007.8 - 10.2
04/10:30pm 22.9 23.7 20.6 87 1.5 S 17 22 9 12 1008.1 - 10.2
04/10:00pm 23.4 23.7 20.3 83 2.0 SSE 19 24 10 13 1008.2 - 10.2
04/09:30pm 22.7 24.2 21.2 91 1.0 S 15 19 8 10 1008.5 - 10.2
04/09:00pm 23.4 23.9 21.1 87 1.5 S 20 30 11 16 1008.3 1008.3 10.0
04/08:30pm 24.7 24.2 20.8 79 2.6 SSE 24 35 13 19 1008.0 - 9.6
04/08:00pm 24.4 25.1 21.5 84 1.9 SSE 20 30 11 16 1007.9 - 9.6
04/07:30pm 24.2 24.4 21.3 84 1.9 S 22 33 12 18 1007.5 - 9.6
04/07:00pm 24.1 25.0 22.0 88 1.4 S 20 28 11 15 1007.1 - 9.6
04/06:30pm 24.4 22.7 21.3 83 2.0 SE 32 44 17 24 1006.3 - 9.4
04/06:00pm 25.4 25.1 21.9 81 2.3 SE 26 35 14 19 1005.8 1005.8 9.4
04/05:30pm 25.3 25.2 21.4 79 2.6 SE 24 33 13 18 1005.4 - 9.4
04/05:00pm 25.3 25.8 22.0 82 2.2 SE 22 30 12 16 1005.3 - 9.4
04/04:30pm 24.9 26.2 22.4 86 1.7 SE 19 26 10 14 1004.6 - 9.4
04/04:00pm 24.8 25.9 23.0 90 1.2 SE 22 30 12 16 1004.6 - 9.4
04/03:30pm 24.0 24.0 22.4 91 1.1 SSE 26 37 14 20 1004.8 - 9.4
04/03:00pm 23.8 24.1 22.9 95 0.6 SSE 26 37 14 20 1004.8 1004.8 9.4
04/02:53pm 23.9 24.3 23.2 96 0.5 SSE 26 37 14 20 1004.8 - 9.4
04/02:30pm 23.6 23.9 22.9 96 0.5 SSE 26 35 14 19 1005.0 - 8.2
04/02:27pm 23.4 23.2 22.7 96 0.5 SSE 28 41 15 22 1005.0 - 7.8
04/02:14pm 23.3 22.9 22.3 94 0.7 SSE 28 43 15 23 1005.1 - 4.8
04/02:00pm 23.6 23.8 22.8 95 0.5 S 26 35 14 19 1005.3 - 3.8
04/01:55pm 23.8 24.1 22.9 95 0.6 S 26 32 14 17 1005.3 - 3.6
04/01:43pm 24.3 25.7 23.6 96 0.5 SSE 22 32 12 17 1005.2 - 3.6
04/01:36pm 24.3 25.0 23.6 96 0.5 SSE 26 35 14 19 1005.1 - 3.4
04/01:33pm 24.2 24.4 23.5 96 0.5 SSE 28 35 15 19 1005.1 - 3.2
04/01:30pm 24.1 24.2 23.2 95 0.6 SSE 28 37 15 20 1005.2 - 3.2
04/01:22pm 24.0 24.4 23.1 95 0.6 SSE 26 43 14 23 1005.2 - 3.2
04/01:00pm 24.2 23.7 23.5 96 0.5 SSE 32 43 17 23 1005.1 - 2.6
04/12:38pm 25.1 26.3 23.9 93 0.8 SSE 24 39 13 21 1005.0 - 0.6
04/12:30pm 25.6 27.2 23.8 90 1.2 SSE 22 30 12 16 1005.0 - 0.0
04/12:00pm 26.1 27.7 24.5 91 1.1 SSE 24 32 13 17 1004.9 1004.9 0.0

Other Formats:

Comma delimited format used in spreadsheet applications
http://www.bom.gov.au/fwo/IDQ60801/IDQ60801.94569.axf

JavaScript Object Notation format (JSON) in row-major order
http://www.bom.gov.au/fwo/IDQ60801/IDQ60801.94569.json